Pagina principale
METAR-TAF:

METAR-TAF

Aeroporti :

Aeroporto di Podgorica

Podgorica, Montenegro

latitudine: 42-26N, longitudine: 019-17E, altezza: 53 m

Osservazione

Il bollettino è stato emesso 5 minuti fa, alle 04:30 UTC
Vento 8 kt da nord/nord-ovest
Temperature 23°C
Umidità 57%
Pressione 1014 hPa
Visibilità 10 km o più
nessuna nube inferiore a 1500 m e nessun cumulonembo

METAR: LYPG 180430Z 33008KT CAVOK 23/14 Q1014 NOSIG

Ora: 06:35 (04:35 UTC)

Previsione

Il bollettino è stato emesso 5 ore e 35 minuti fa, alle 23:00 UTC
Previsione valida dal 18 alle 00 UTC al 18 alle 24 UTC
Vento 5 kt da nord
Visibilità 10 km o più
Poco nuvoloso ad un'altezza di 5000 ft
Nubi sparse ad un'altezza di 10000 ft

TAF: LYPG 172300Z 1800/1824 36005KT 9999 FEW050 SCT100 TX36/1814Z TN21/1804Z

Osservazioni e previsioni meteorologiche di più di 4000 aeroporti (messaggi METAR e TAF).

Le stazioni disponibili sono rappresentate dai dischi gialli e rossi sulla carta.

Puntare il mouse per vedere il nome della stazione.

Clicca sopra per visualizzare le osservazioni e previsioni meteorologiche.

Per cambiare la mappa : fare clic sui pulsanti verdi con una croce nera per ingrandire, il pulsante verde con un trattino per diminuire, o sulla freccia verde per le mappe adiacenti.


METAR-TAF: